Time;durP1;ratioP1;P1;durP2;ratioP2;P2;SDS_P1;SDS_P2;PMS_P1;PMS_P2;Temp;Humidity;BMP_temperature;BMP_pressure;BME280_temperature;BME280_humidity;BME280_pressure;Samples;Min_cycle;Max_cycle;Signal;HPM_P1;HPM_P2
2022/07/10 00:00:20;;;;;;;3.10;0.70;;;;;;;11.92;100.00;101500.97;5061520;28;20429;-84
2022/07/10 00:02:53;;;;;;;2.45;0.77;;;;;;;12.03;100.00;101502.66;5057302;28;20428;-84
2022/07/10 00:05:22;;;;;;;2.60;0.63;;;;;;;12.01;100.00;101507.53;5059871;28;20415;-84
2022/07/10 00:07:56;;;;;;;2.57;0.70;;;;;;;12.02;100.00;101500.19;5064985;28;20429;-84
2022/07/10 00:10:30;;;;;;;1.98;0.57;;;;;;;12.02;100.00;101492.81;5073188;28;20454;-84
2022/07/10 00:12:58;;;;;;;4.68;0.80;;;;;;;12.04;100.00;101493.38;5059337;28;20415;-86
2022/07/10 00:15:33;;;;;;;1.40;0.45;;;;;;;11.96;100.00;101504.81;5054671;28;20969;-85
2022/07/10 00:18:06;;;;;;;5.47;0.68;;;;;;;11.97;100.00;101503.72;5060771;28;20432;-86
2022/07/10 00:20:40;;;;;;;3.65;0.70;;;;;;;12.00;100.00;101494.16;5070776;28;20421;-85
2022/07/10 00:23:13;;;;;;;3.65;0.60;;;;;;;11.86;100.00;101504.75;5055731;28;20423;-86
2022/07/10 00:25:46;;;;;;;2.90;0.55;;;;;;;11.90;100.00;101505.84;5071623;28;20404;-86
2022/07/10 00:28:19;;;;;;;2.03;0.50;;;;;;;11.84;100.00;101499.56;5068627;28;20767;-89
2022/07/10 00:30:53;;;;;;;3.15;0.60;;;;;;;11.89;100.00;101499.59;5060895;28;20435;-86
2022/07/10 00:33:27;;;;;;;3.10;0.80;;;;;;;11.90;100.00;101500.38;5065214;28;20432;-85
2022/07/10 00:36:01;;;;;;;2.55;0.80;;;;;;;11.88;100.00;101500.66;5042388;28;20422;-85
2022/07/10 00:38:34;;;;;;;2.13;0.60;;;;;;;11.93;100.00;101507.22;5066338;28;20895;-83
2022/07/10 00:41:02;;;;;;;2.75;0.70;;;;;;;11.86;100.00;101493.84;5077405;28;20937;-88
2022/07/10 00:43:53;;;;;;;3.88;0.82;;;;;;;11.80;100.00;101497.66;5052524;28;20427;-87
2022/07/10 00:46:29;;;;;;;2.80;0.70;;;;;;;11.84;100.00;101496.03;5051336;28;20419;-86
2022/07/10 00:49:02;;;;;;;4.65;0.80;;;;;;;11.83;100.00;101495.19;5067039;28;20431;-85
2022/07/10 00:51:36;;;;;;;3.53;0.80;;;;;;;11.82;100.00;101479.94;5051656;28;20420;-89
2022/07/10 00:54:09;;;;;;;3.60;0.93;;;;;;;11.87;100.00;101484.56;5051200;28;20784;-87
2022/07/10 00:56:43;;;;;;;3.92;0.70;;;;;;;11.90;100.00;101489.47;5056447;28;20433;-87
2022/07/10 00:59:16;;;;;;;2.13;0.60;;;;;;;11.89;100.00;101488.66;5072890;28;20429;-85
2022/07/10 01:01:51;;;;;;;3.22;0.63;;;;;;;11.89;100.00;101491.41;5063807;28;20422;-84
2022/07/10 01:04:20;;;;;;;4.22;0.85;;;;;;;11.86;100.00;101478.31;5070883;28;20417;-85
2022/07/10 01:06:53;;;;;;;3.17;0.85;;;;;;;11.87;100.00;101481.84;5070525;28;20417;-84
2022/07/10 01:09:27;;;;;;;2.97;0.73;;;;;;;11.96;100.00;101487.59;5067826;28;20913;-87
2022/07/10 01:11:57;;;;;;;4.15;0.75;;;;;;;11.94;100.00;101481.59;5081729;28;20424;-84
2022/07/10 01:14:26;;;;;;;4.78;0.70;;;;;;;11.95;100.00;101480.53;5067206;28;20416;-83
2022/07/10 01:17:00;;;;;;;3.90;0.80;;;;;;;11.97;100.00;101478.34;5062383;28;20789;-87
2022/07/10 01:19:33;;;;;;;3.03;0.70;;;;;;;11.90;100.00;101471.22;5067029;28;20443;-85
2022/07/10 01:22:08;;;;;;;4.28;0.80;;;;;;;11.99;100.00;101479.72;5067539;28;20424;-88
2022/07/10 01:24:36;;;;;;;5.60;0.70;;;;;;;11.97;100.00;101478.34;5064229;28;20721;-84
2022/07/10 01:27:09;;;;;;;3.13;0.80;;;;;;;11.95;100.00;101464.19;5066291;28;20436;-85
2022/07/10 01:29:44;;;;;;;3.05;0.90;;;;;;;11.98;100.00;101460.91;5085167;28;20410;-85
2022/07/10 01:32:17;;;;;;;3.05;0.63;;;;;;;12.02;100.00;101464.72;5071807;28;20424;-85
2022/07/10 01:34:50;;;;;;;5.93;1.00;;;;;;;12.00;100.00;101458.69;5065345;28;20434;-86
2022/07/10 01:37:24;;;;;;;2.58;0.60;;;;;;;12.00;100.00;101459.53;5071820;28;20427;-85
2022/07/10 01:39:58;;;;;;;3.00;0.98;;;;;;;12.04;100.00;101457.06;5045262;28;20420;-86
2022/07/10 01:42:26;;;;;;;4.40;0.85;;;;;;;12.02;100.00;101454.63;5070387;28;20416;-85
2022/07/10 01:44:59;;;;;;;3.65;0.80;;;;;;;12.11;100.00;101460.38;5050001;28;20412;-84
2022/07/10 01:47:32;;;;;;;3.97;0.80;;;;;;;12.11;100.00;101449.47;5038022;28;20454;-84
2022/07/10 01:50:06;;;;;;;5.65;0.93;;;;;;;12.05;100.00;101450.53;5044436;28;20963;-85
2022/07/10 01:52:41;;;;;;;3.05;0.70;;;;;;;11.99;100.00;101443.44;5059606;28;20431;-86
2022/07/10 01:55:14;;;;;;;3.78;0.73;;;;;;;12.06;100.00;101446.72;5047029;28;20416;-87
2022/07/10 01:57:42;;;;;;;5.35;1.08;;;;;;;12.06;100.00;101444.81;5068962;28;20429;-84
2022/07/10 02:00:16;;;;;;;4.75;0.90;;;;;;;12.01;100.00;101431.16;5068661;28;20414;-84
2022/07/10 02:04:40;;;;;;;4.00;0.85;;;;;;;12.07;100.00;101432.81;5050946;28;20435;-85
2022/07/10 02:05:37;;;;;;;3.13;0.80;;;;;;;12.06;100.00;101436.63;5065217;28;20923;-85
2022/07/10 02:08:12;;;;;;;4.40;0.70;;;;;;;12.04;100.00;101424.34;5042432;28;20900;-84
2022/07/10 02:10:46;;;;;;;4.60;0.70;;;;;;;12.10;100.00;101430.63;5050589;28;20424;-84
2022/07/10 02:13:20;;;;;;;2.38;0.73;;;;;;;12.12;100.00;101437.44;5065018;28;20422;-85
2022/07/10 02:15:53;;;;;;;3.30;0.90;;;;;;;12.10;100.00;101438.81;5057803;28;20426;-87
2022/07/10 02:18:27;;;;;;;3.57;1.10;;;;;;;12.13;100.00;101432.81;5073887;28;20831;-88
2022/07/10 02:20:55;;;;;;;4.45;0.90;;;;;;;12.23;100.00;101435.53;5062415;28;20412;-83
2022/07/10 02:23:29;;;;;;;5.75;1.00;;;;;;;12.17;100.00;101437.44;5071233;28;20895;-84
2022/07/10 02:26:03;;;;;;;4.28;1.00;;;;;;;12.21;100.00;101427.63;5065133;28;20432;-86
2022/07/10 02:28:36;;;;;;;3.75;0.88;;;;;;;12.20;100.00;101433.38;5061701;28;20423;-86
2022/07/10 02:31:09;;;;;;;5.60;1.15;;;;;;;12.23;100.00;101428.16;5053423;28;20437;-86
2022/07/10 02:33:42;;;;;;;5.85;1.05;;;;;;;12.21;100.00;101433.09;5067572;28;20463;-86
2022/07/10 02:36:10;;;;;;;6.97;1.20;;;;;;;12.22;100.00;101423.81;5069884;28;20432;-85
2022/07/10 02:38:45;;;;;;;4.70;1.00;;;;;;;12.22;100.00;101426.53;5056203;28;20435;-86
2022/07/10 02:41:18;;;;;;;6.28;1.00;;;;;;;12.22;100.00;101426.53;5048165;28;20750;-86
2022/07/10 02:43:51;;;;;;;6.85;1.25;;;;;;;12.17;100.00;101426.53;5074588;28;20440;-86
2022/07/10 02:46:25;;;;;;;5.32;1.20;;;;;;;12.23;100.00;101428.16;5061847;28;20422;-88
2022/07/10 02:48:58;;;;;;;5.85;1.38;;;;;;;11.97;100.00;101391.06;5054474;28;20427;-85
2022/07/10 02:51:31;;;;;;;6.97;1.00;;;;;;;12.26;100.00;101440.44;5073172;28;20425;-86
2022/07/10 02:54:07;;;;;;;4.68;1.20;;;;;;;12.19;100.00;101416.19;5045384;28;20423;-86
2022/07/10 02:56:40;;;;;;;4.40;1.10;;;;;;;12.23;100.00;101430.91;5074523;28;20422;-85
2022/07/10 02:59:13;;;;;;;6.55;1.10;;;;;;;12.31;100.00;101440.47;5049362;28;20432;-84
2022/07/10 03:01:46;;;;;;;8.65;1.38;;;;;;;12.27;100.00;101435.81;5074605;28;20419;-86
2022/07/10 03:04:20;;;;;;;7.57;1.33;;;;;;;12.21;100.00;101432.28;5067418;28;20858;-86
2022/07/10 03:06:53;;;;;;;6.45;1.23;;;;;;;12.25;100.00;101436.09;5069238;28;21127;-85
2022/07/10 03:09:28;;;;;;;5.57;1.20;;;;;;;12.28;100.00;101430.09;5047879;28;20446;-87
2022/07/10 03:12:01;;;;;;;5.95;1.20;;;;;;;12.31;100.00;101436.91;5055321;28;20438;-85
2022/07/10 03:14:29;;;;;;;7.75;1.67;;;;;;;12.34;100.00;101434.44;5058052;28;20420;-84
2022/07/10 03:17:03;;;;;;;4.57;1.20;;;;;;;12.35;100.00;101433.38;5049012;28;20431;-83
2022/07/10 03:19:36;;;;;;;5.70;1.40;;;;;;;12.34;100.00;101429.00;5059278;28;20419;-85
2022/07/10 03:22:09;;;;;;;7.63;1.90;;;;;;;12.25;100.00;101414.28;5058642;28;20895;-85
2022/07/10 03:24:39;;;;;;;7.82;1.38;;;;;;;12.32;100.00;101435.81;5050057;28;20415;-86
2022/07/10 03:27:07;;;;;;;7.60;1.48;;;;;;;12.34;100.00;101428.19;5056468;28;20422;-83
2022/07/10 03:29:35;;;;;;;9.70;1.67;;;;;;;12.35;100.00;101433.38;5049529;28;20663;-86
2022/07/10 03:32:09;;;;;;;9.95;1.65;;;;;;;12.29;100.00;101433.63;5061542;28;20451;-85
2022/07/10 03:34:37;;;;;;;8.73;1.60;;;;;;;12.32;100.00;101431.19;5054782;28;20906;-85
2022/07/10 03:37:06;;;;;;;7.25;1.30;;;;;;;12.30;100.00;101430.63;5056995;28;20430;-84
2022/07/10 03:39:41;;;;;;;8.93;1.48;;;;;;;12.33;100.00;101432.00;5075482;28;20431;-83
2022/07/10 03:42:14;;;;;;;10.02;1.92;;;;;;;12.24;100.00;101423.53;5074606;28;20427;-85
2022/07/10 03:44:42;;;;;;;5.68;1.33;;;;;;;12.27;100.00;101416.72;5068793;28;20423;-85
2022/07/10 03:47:15;;;;;;;7.60;1.67;;;;;;;12.32;100.00;101425.72;5066246;28;20421;-85
2022/07/10 03:49:44;;;;;;;10.53;1.57;;;;;;;12.39;100.00;101429.00;5054446;28;20425;-86
2022/07/10 03:52:17;;;;;;;7.38;1.90;;;;;;;12.32;100.00;101430.34;5064929;28;20431;-86
2022/07/10 03:54:51;;;;;;;7.35;1.55;;;;;;;12.34;100.00;101431.72;5057764;28;20432;-86
2022/07/10 04:00:15;;;;;;;7.57;1.70;;;;;;;12.38;100.00;101437.47;5052905;28;20563;-84
2022/07/10 04:02:49;;;;;;;5.18;1.40;;;;;;;12.44;100.00;101427.34;5053266;28;20927;-85
2022/07/10 04:05:22;;;;;;;4.88;1.60;;;;;;;12.39;100.00;101420.00;5072332;28;20429;-86
2022/07/10 04:07:57;;;;;;;7.30;1.48;;;;;;;12.44;100.00;101428.16;5073558;28;20903;-84
2022/07/10 04:10:32;;;;;;;7.30;1.60;;;;;;;12.38;100.00;101421.88;5063601;28;20470;-86
2022/07/10 04:13:00;;;;;;;8.53;1.60;;;;;;;12.40;100.00;101419.72;5071517;28;20914;-86
2022/07/10 04:15:29;;;;;;;7.38;1.40;;;;;;;12.39;100.00;101426.25;5054152;28;20438;-85
2022/07/10 04:18:02;;;;;;;7.07;1.50;;;;;;;12.40;100.00;101419.72;5051179;28;20801;-84
2022/07/10 04:20:35;;;;;;;8.73;1.50;;;;;;;12.35;100.00;101400.59;5050671;28;20779;-86
2022/07/10 04:23:08;;;;;;;7.23;1.50;;;;;;;12.44;100.00;101414.50;5068119;28;20979;-85
2022/07/10 04:25:38;;;;;;;7.78;1.40;;;;;;;12.44;100.00;101413.72;5067937;28;20403;-84
2022/07/10 04:28:11;;;;;;;7.10;1.80;;;;;;;12.36;100.00;101404.16;5059091;28;20423;-84
2022/07/10 04:30:44;;;;;;;7.60;1.75;;;;;;;12.45;100.00;101412.63;5051866;28;20417;-83
2022/07/10 04:33:18;;;;;;;8.02;2.05;;;;;;;12.50;100.00;101407.16;5056893;28;20464;-85
2022/07/10 04:35:51;;;;;;;8.55;1.70;;;;;;;12.50;100.00;101410.69;5062834;28;20450;-84
2022/07/10 04:38:24;;;;;;;8.63;1.70;;;;;;;12.62;100.00;101415.84;5068723;28;20423;-84
2022/07/10 04:40:59;;;;;;;6.50;1.30;;;;;;;12.65;100.00;101409.03;5055054;28;20455;-86
2022/07/10 04:43:32;;;;;;;9.05;1.80;;;;;;;12.68;100.00;101414.78;5065786;28;20439;-86
2022/07/10 04:46:06;;;;;;;7.80;1.57;;;;;;;12.68;100.00;101411.22;5042007;28;20428;-84
2022/07/10 04:48:39;;;;;;;8.00;1.70;;;;;;;12.62;100.00;101409.59;5063204;28;20930;-84
2022/07/10 04:51:12;;;;;;;7.97;1.88;;;;;;;12.40;100.00;101375.22;5068799;28;20420;-86
2022/07/10 04:53:41;;;;;;;8.35;1.90;;;;;;;12.61;100.00;101411.50;5058642;28;20537;-84
2022/07/10 04:56:10;;;;;;;6.95;1.50;;;;;;;12.69;100.00;101415.56;5058508;28;20436;-83
2022/07/10 04:58:44;;;;;;;13.07;1.83;;;;;;;12.59;100.00;101413.69;5066150;28;20776;-86
2022/07/10 05:01:12;;;;;;;11.63;2.05;;;;;;;12.57;100.00;101413.16;5064435;28;20415;-84
2022/07/10 05:03:45;;;;;;;10.70;2.00;;;;;;;12.68;100.00;101422.16;5061682;28;20912;-83
2022/07/10 05:06:13;;;;;;;9.13;1.85;;;;;;;12.61;100.00;101421.59;5067299;28;20423;-85
2022/07/10 05:08:46;;;;;;;8.35;1.67;;;;;;;12.64;100.00;101419.16;5063290;28;20436;-86
2022/07/10 05:11:21;;;;;;;10.50;1.90;;;;;;;12.65;100.00;101418.06;5067216;28;20432;-85
2022/07/10 05:13:54;;;;;;;9.95;2.10;;;;;;;12.71;100.00;101416.94;5067876;28;20431;-84
2022/07/10 05:16:27;;;;;;;9.90;1.67;;;;;;;12.97;100.00;101414.16;5085088;28;20436;-85
2022/07/10 05:19:01;;;;;;;9.82;1.50;;;;;;;13.51;100.00;101417.25;5065356;28;20419;-83
2022/07/10 05:21:34;;;;;;;10.00;1.77;;;;;;;13.31;100.00;101415.38;5083941;28;20425;-85
2022/07/10 05:24:02;;;;;;;9.98;1.80;;;;;;;13.29;100.00;101417.59;5069314;28;20798;-82
2022/07/10 05:26:32;;;;;;;10.48;1.52;;;;;;;13.26;100.00;101405.31;5085930;28;20418;-84
2022/07/10 05:29:00;;;;;;;6.95;1.50;;;;;;;13.58;100.00;101423.22;5076897;28;20925;-83
2022/07/10 05:31:33;;;;;;;7.37;1.50;;;;;;;14.19;100.00;101411.03;5068684;28;20649;-84
2022/07/10 05:34:06;;;;;;;6.65;1.50;;;;;;;16.33;100.00;101405.09;5068227;28;20427;-84
2022/07/10 05:36:40;;;;;;;7.95;1.77;;;;;;;16.99;100.00;101407.78;5074083;28;20444;-85
2022/07/10 05:39:13;;;;;;;9.10;1.50;;;;;;;15.79;100.00;101404.59;5064753;28;20919;-85
2022/07/10 05:41:42;;;;;;;8.35;1.48;;;;;;;14.88;100.00;101410.16;5070576;28;20400;-84
2022/07/10 05:44:11;;;;;;;6.55;1.40;;;;;;;14.36;100.00;101407.91;5070757;28;20899;-86
2022/07/10 05:46:44;;;;;;;7.00;1.33;;;;;;;14.46;100.00;101420.69;5070349;28;20915;-87
2022/07/10 05:49:12;;;;;;;8.32;1.52;;;;;;;14.40;100.00;101419.06;5070217;28;20427;-82
2022/07/10 05:51:45;;;;;;;7.80;1.63;;;;;;;14.25;100.00;101417.28;5070171;28;20428;-84
2022/07/10 05:54:19;;;;;;;8.25;1.60;;;;;;;14.27;100.00;101426.03;5072681;28;20424;-86
2022/07/10 05:56:53;;;;;;;7.30;1.50;;;;;;;14.09;100.00;101416.59;5064610;28;20428;-85
2022/07/10 05:59:26;;;;;;;8.80;1.70;;;;;;;14.09;100.00;101411.94;5067044;28;20416;-87
2022/07/10 06:01:59;;;;;;;7.38;1.50;;;;;;;13.91;100.00;101418.91;5064961;28;20430;-83
2022/07/10 06:04:33;;;;;;;9.93;1.80;;;;;;;13.98;100.00;101376.75;5045419;28;20434;-85
2022/07/10 06:07:06;;;;;;;7.28;1.20;;;;;;;14.28;100.00;101414.00;5043951;28;20423;-84
2022/07/10 06:09:40;;;;;;;9.25;1.70;;;;;;;14.77;100.00;101421.19;5069914;28;20427;-84
2022/07/10 06:12:15;;;;;;;7.43;1.70;;;;;;;15.20;100.00;101411.41;5057129;28;21193;-85
2022/07/10 06:14:48;;;;;;;7.95;1.63;;;;;;;14.94;100.00;101408.97;5057311;28;20422;-84
2022/07/10 06:17:21;;;;;;;9.55;1.60;;;;;;;14.50;100.00;101413.53;5061921;28;20423;-84
2022/07/10 06:19:54;;;;;;;7.68;1.50;;;;;;;14.62;100.00;101408.50;5057694;28;20423;-85
2022/07/10 06:22:33;;;;;;;7.47;1.55;;;;;;;14.82;100.00;101405.81;5067231;28;20915;-83
2022/07/10 06:25:09;;;;;;;7.15;1.23;;;;;;;14.77;100.00;101418.47;5062893;28;20419;-85
2022/07/10 06:27:38;;;;;;;4.90;1.20;;;;;;;14.58;100.00;101410.16;5047160;28;20424;-83
2022/07/10 06:30:12;;;;;;;5.93;1.27;;;;;;;14.77;100.00;101412.97;5069898;28;20744;-82
2022/07/10 06:32:40;;;;;;;8.00;1.40;;;;;;;14.82;100.00;101383.91;5057512;28;20427;-82
2022/07/10 06:35:13;;;;;;;6.65;1.33;;;;;;;14.94;100.00;101395.28;5061709;28;20777;-82
2022/07/10 06:37:46;;;;;;;6.38;1.35;;;;;;;15.00;100.00;101401.50;5053517;28;20423;-83
2022/07/10 06:40:21;;;;;;;7.82;1.52;;;;;;;14.95;100.00;101394.97;5054357;28;20447;-84
2022/07/10 06:42:51;;;;;;;8.33;1.30;;;;;;;15.10;100.00;101395.91;5077576;28;20410;-82
2022/07/10 06:45:26;;;;;;;8.00;1.45;;;;;;;14.61;100.00;101417.78;5064847;28;20432;-84
2022/07/10 06:47:59;;;;;;;8.15;1.70;;;;;;;14.77;100.00;101404.75;5055780;28;20426;-85
2022/07/10 06:50:34;;;;;;;6.50;1.38;;;;;;;15.10;100.00;101406.88;5057652;28;20413;-86
2022/07/10 06:53:03;;;;;;;6.70;1.40;;;;;;;14.54;100.00;101416.47;5065236;28;20430;-85
2022/07/10 06:55:33;;;;;;;6.32;1.38;;;;;;;14.24;100.00;101408.25;5050162;28;20439;-86
2022/07/10 06:58:02;;;;;;;7.57;1.60;;;;;;;14.47;100.00;101419.56;5047099;28;20439;-86
2022/07/10 07:00:31;;;;;;;5.93;1.30;;;;;;;14.46;100.00;101413.28;5069733;28;20410;-85
2022/07/10 07:03:04;;;;;;;5.93;1.10;;;;;;;14.39;100.00;101406.47;5073908;28;20429;-85
2022/07/10 07:05:32;;;;;;;6.73;1.47;;;;;;;14.40;100.00;101419.06;5073720;28;20420;-87
2022/07/10 07:08:08;;;;;;;8.00;1.58;;;;;;;14.36;100.00;101416.13;5071874;28;20410;-86
2022/07/10 07:10:41;;;;;;;7.35;1.30;;;;;;;14.23;100.00;101408.56;5072682;28;20427;-89
2022/07/10 07:13:16;;;;;;;7.45;1.40;;;;;;;14.25;100.00;101414.53;5061320;28;20432;-85
2022/07/10 07:15:50;;;;;;;5.63;1.30;;;;;;;13.99;100.00;101406.56;5061959;28;20429;-88
2022/07/10 07:18:31;;;;;;;4.82;1.08;;;;;;;14.07;100.00;101418.78;5053343;28;20419;-86
2022/07/10 07:23:56;;;;;;;6.15;1.20;;;;;;;14.06;100.00;101426.19;5055414;28;20423;-87
2022/07/10 07:26:24;;;;;;;6.93;1.33;;;;;;;14.23;100.00;101428.53;5079645;28;21185;-88
2022/07/10 07:28:58;;;;;;;11.60;1.77;;;;;;;14.28;100.00;101424.94;5064126;28;20431;-87
2022/07/10 07:31:27;;;;;;;9.37;1.20;;;;;;;14.41;100.00;101424.25;5072546;28;20487;-87
2022/07/10 07:34:00;;;;;;;9.18;1.23;;;;;;;14.31;100.00;101424.38;5064391;28;20426;-86
2022/07/10 07:36:28;;;;;;;5.57;1.17;;;;;;;14.40;100.00;101436.34;5051648;28;20414;-86
2022/07/10 07:39:01;;;;;;;7.40;1.30;;;;;;;14.32;100.00;101419.69;5061919;28;20802;-87
2022/07/10 07:41:29;;;;;;;7.38;1.42;;;;;;;14.35;100.00;101432.81;5066940;28;20403;-86
2022/07/10 07:44:04;;;;;;;5.95;1.10;;;;;;;14.34;100.00;101426.53;5060813;28;20792;-87
2022/07/10 07:46:37;;;;;;;6.03;1.20;;;;;;;14.68;100.00;101430.34;5047921;28;20432;-87
2022/07/10 07:49:11;;;;;;;5.30;1.35;;;;;;;14.94;100.00;101409.81;5066024;28;20431;-84
2022/07/10 07:51:39;;;;;;;8.95;1.38;;;;;;;15.10;100.00;101434.28;5069199;28;20413;-85
2022/07/10 07:54:07;;;;;;;6.10;1.30;;;;;;;15.22;100.00;101420.16;5047740;28;20436;-88
2022/07/10 07:56:35;;;;;;;6.57;1.15;;;;;;;15.27;100.00;101423.69;5054590;28;20437;-87
2022/07/10 07:59:10;;;;;;;7.40;1.37;;;;;;;15.13;100.00;101406.28;5048692;28;20925;-86
2022/07/10 08:01:43;;;;;;;6.70;1.17;;;;;;;15.17;100.00;101412.81;5054105;28;20437;-88
2022/07/10 08:04:17;;;;;;;4.70;1.00;;;;;;;15.34;100.00;101419.75;5049563;28;20444;-86
2022/07/10 08:06:51;;;;;;;9.57;1.70;;;;;;;15.20;100.00;101408.69;5053188;28;20981;-90
2022/07/10 08:09:25;;;;;;;6.83;1.03;;;;;;;15.65;100.00;101407.25;5048306;28;20779;-86
2022/07/10 08:11:58;;;;;;;8.10;1.23;;;;;;;16.08;100.00;101406.34;5055570;28;20430;-88
2022/07/10 08:14:27;;;;;;;6.35;1.30;;;;;;;15.83;100.00;101393.84;5044171;28;20435;-85
2022/07/10 08:17:00;;;;;;;5.70;1.50;;;;;;;15.88;100.00;101404.75;5063599;28;20429;-86
2022/07/10 08:19:34;;;;;;;7.03;1.70;;;;;;;15.95;100.00;101398.88;5061655;28;20427;-86
2022/07/10 08:22:02;;;;;;;6.80;2.17;;;;;;;16.44;100.00;101393.94;5054333;28;20442;-87
2022/07/10 08:24:35;;;;;;;5.10;1.00;;;;;;;16.43;100.00;101395.06;5067846;28;20434;-88
2022/07/10 08:27:09;;;;;;;5.82;1.17;;;;;;;15.96;100.00;101397.75;5070808;28;20442;-86
2022/07/10 08:29:44;;;;;;;5.53;1.05;;;;;;;15.57;100.00;101396.94;5065290;28;20442;-86
2022/07/10 08:32:13;;;;;;;5.55;1.02;;;;;;;15.34;100.00;101403.28;5048970;28;20439;-89
2022/07/10 08:34:41;;;;;;;5.80;1.42;;;;;;;15.18;100.00;101398.00;5071245;28;20429;-89
2022/07/10 08:37:14;;;;;;;4.32;1.10;;;;;;;15.36;100.00;101404.63;5053142;28;20426;-86
2022/07/10 08:39:54;;;;;;;5.47;1.15;;;;;;;15.53;100.00;101389.59;5050595;28;20442;-86
2022/07/10 08:42:27;;;;;;;5.90;1.20;;;;;;;15.89;100.00;101397.31;5057708;28;20524;-86
2022/07/10 08:45:02;;;;;;;8.57;1.40;;;;;;;16.36;100.00;101391.91;5069574;28;20423;-87
2022/07/10 08:47:35;;;;;;;6.03;1.40;;;;;;;16.21;100.00;101393.78;5073856;28;20972;-88
2022/07/10 08:50:17;;;;;;;6.05;1.10;;;;;;;16.17;100.00;101392.75;5055311;28;20428;-88
2022/07/10 08:52:55;;;;;;;2.78;0.80;;;;;;;15.70;100.00;101391.81;5053737;28;20896;-85
2022/07/10 08:55:28;;;;;;;4.68;1.02;;;;;;;15.86;100.00;101390.50;5068227;28;20500;-83
2022/07/10 08:58:04;;;;;;;6.05;1.60;;;;;;;15.95;100.00;101385.13;5052039;28;20778;-87
2022/07/10 09:00:38;;;;;;;6.15;1.92;;;;;;;16.25;100.00;101385.75;5079560;28;20419;-93
2022/07/10 09:03:12;;;;;;;5.97;1.45;;;;;;;16.58;100.00;101380.22;5057934;28;20768;-88
2022/07/10 09:05:46;;;;;;;7.30;1.30;;;;;;;16.52;100.00;101384.19;5082129;28;20929;-87
2022/07/10 09:08:24;;;;;;;5.65;1.25;;;;;;;16.98;100.00;101399.84;5061132;28;20412;-89
2022/07/10 09:11:16;;;;;;;6.22;1.20;;;;;;;16.76;100.00;101387.56;5072272;28;20431;-88
2022/07/10 09:13:52;;;;;;;5.93;1.27;;;;;;;17.00;100.00;101381.09;5062512;28;20785;-87
2022/07/10 09:16:28;;;;;;;6.78;1.10;;;;;;;17.29;100.00;101379.94;5066242;28;20785;-88
2022/07/10 09:19:16;;;;;;;4.95;0.90;;;;;;;16.92;100.00;101390.88;5075778;28;20421;-87
2022/07/10 09:21:51;;;;;;;5.18;0.95;;;;;;;16.44;100.00;101386.50;5051618;28;20413;-89
2022/07/10 09:24:20;;;;;;;5.60;1.15;;;;;;;16.05;100.00;101382.25;5047181;28;20746;-89
2022/07/10 09:27:03;;;;;;;8.40;1.30;;;;;;;16.02;100.00;101390.25;5069454;28;20920;-86
2022/07/10 09:29:55;;;;;;;5.82;1.10;;;;;;;16.13;100.00;101389.81;5060056;28;20434;-85
2022/07/10 09:32:36;;;;;;;4.85;1.15;;;;;;;16.66;100.00;101387.78;5064260;28;20413;-88
2022/07/10 09:38:03;;;;;;;5.90;1.13;;;;;;;16.94;94.84;101357.56;5058255;28;20419;-90
2022/07/10 09:40:31;;;;;;;6.00;1.25;;;;;;;16.74;98.32;101381.56;5070249;28;20918;-89
2022/07/10 09:43:04;;;;;;;5.40;0.88;;;;;;;16.81;100.00;101384.72;5057588;28;20427;-85
2022/07/10 09:45:38;;;;;;;5.05;1.10;;;;;;;16.91;100.00;101391.97;5067909;28;20446;-88
2022/07/10 09:48:07;;;;;;;5.00;1.00;;;;;;;16.90;100.00;101384.03;5063927;28;20423;-82
2022/07/10 09:50:37;;;;;;;6.93;1.30;;;;;;;17.15;99.57;101379.94;5052914;28;20428;-89
2022/07/10 09:53:07;;;;;;;5.78;1.00;;;;;;;17.07;93.37;101373.25;5050684;28;20433;-80
2022/07/10 09:55:41;;;;;;;4.67;1.10;;;;;;;16.99;95.67;101393.22;5066359;28;20436;-82
2022/07/10 09:58:10;;;;;;;6.63;1.00;;;;;;;17.17;93.11;101377.72;5066784;28;20909;-82
2022/07/10 10:00:45;;;;;;;4.45;1.02;;;;;;;17.65;93.25;101379.16;5058645;28;20420;-83
2022/07/10 10:03:21;;;;;;;5.05;1.00;;;;;;;17.91;91.25;101384.03;5054606;28;20415;-87
2022/07/10 10:05:55;;;;;;;5.40;1.08;;;;;;;17.38;100.00;101397.34;5045928;28;20452;-81
2022/07/10 10:08:30;;;;;;;6.22;1.10;;;;;;;16.96;99.72;101391.88;5064376;28;20534;-83
2022/07/10 10:11:08;;;;;;;5.07;1.00;;;;;;;17.58;100.00;101387.84;5060772;28;20451;-84
2022/07/10 10:13:36;;;;;;;5.25;1.25;;;;;;;17.97;88.36;101396.59;5066839;28;20930;-84
2022/07/10 10:16:10;;;;;;;4.32;1.00;;;;;;;17.94;97.03;101383.44;5063229;28;20836;-82
2022/07/10 10:21:31;;;;;;;4.65;1.00;;;;;;;17.98;88.53;101387.19;5064899;28;20430;-81
2022/07/10 10:24:06;;;;;;;5.88;1.20;;;;;;;18.28;91.46;101380.09;5063319;28;20447;-85
2022/07/10 10:26:34;;;;;;;5.55;1.20;;;;;;;18.58;90.61;101390.66;5060314;28;20790;-83
2022/07/10 10:29:09;;;;;;;2.20;0.73;;;;;;;18.62;82.98;101377.84;5065517;28;20430;-82
2022/07/10 10:31:43;;;;;;;6.03;1.10;;;;;;;18.58;84.20;101379.63;5066831;28;20422;-89
2022/07/10 10:34:16;;;;;;;5.40;1.00;;;;;;;18.46;81.28;101371.94;5049450;28;20416;-82
2022/07/10 10:36:50;;;;;;;3.92;0.90;;;;;;;18.30;74.46;101380.59;5055474;28;20438;-84
2022/07/10 10:39:19;;;;;;;4.70;0.82;;;;;;;18.12;84.56;101374.19;5059823;28;20419;-86
2022/07/10 10:41:54;;;;;;;4.63;1.20;;;;;;;18.35;84.81;101368.63;5072270;28;20419;-83
2022/07/10 10:44:35;;;;;;;6.20;1.30;;;;;;;17.78;84.82;101366.44;5039624;28;20462;-84
2022/07/10 10:47:09;;;;;;;3.78;0.98;;;;;;;17.53;94.72;101387.94;5051204;28;20431;-85
2022/07/10 10:49:51;;;;;;;5.30;1.00;;;;;;;17.66;93.04;101383.50;5068907;28;20429;-85
2022/07/10 10:52:25;;;;;;;5.75;1.00;;;;;;;17.30;93.60;101385.16;5069209;28;20420;-83
2022/07/10 10:55:08;;;;;;;7.60;1.25;;;;;;;17.94;100.00;101373.25;5044990;28;20437;-86
2022/07/10 10:57:50;;;;;;;5.05;0.98;;;;;;;17.81;83.62;101377.63;5041570;28;20431;-89
2022/07/10 11:00:36;;;;;;;8.40;0.90;;;;;;;17.13;90.33;101358.25;5065899;28;20804;-86
2022/07/10 11:03:18;;;;;;;4.13;0.80;;;;;;;17.22;94.33;101374.03;5052344;28;20426;-79
2022/07/10 11:05:49;;;;;;;4.20;0.87;;;;;;;17.06;100.00;101377.13;5052465;28;20520;-87
2022/07/10 11:08:40;;;;;;;5.78;1.20;;;;;;;16.88;100.00;101376.06;5030866;28;20432;-86
2022/07/10 11:11:42;;;;;;;6.95;2.05;;;;;;;17.41;100.00;101384.91;5053811;28;20425;-88
2022/07/10 11:14:15;;;;;;;5.30;1.00;;;;;;;18.11;100.00;101369.78;5059240;28;20798;-83
2022/07/10 11:16:51;;;;;;;5.07;1.10;;;;;;;18.71;95.37;101362.16;5069117;28;20435;-87
2022/07/10 11:19:25;;;;;;;5.43;1.00;;;;;;;18.57;87.52;101365.00;5071425;28;20419;-84
2022/07/10 11:22:08;;;;;;;5.43;0.87;;;;;;;17.79;84.94;101365.34;5066397;28;20415;-84
2022/07/10 11:24:50;;;;;;;6.95;1.10;;;;;;;17.40;88.08;101375.84;5060524;28;20434;-84
2022/07/10 11:27:35;;;;;;;6.13;1.10;;;;;;;17.26;83.75;101378.63;5063613;28;20424;-89
2022/07/10 11:30:09;;;;;;;6.68;1.00;;;;;;;17.61;91.16;101380.91;5053773;28;20436;-83
2022/07/10 11:32:43;;;;;;;4.55;0.93;;;;;;;17.92;87.59;101377.44;5064303;28;20942;-84
2022/07/10 11:35:17;;;;;;;6.38;0.90;;;;;;;17.72;79.67;101368.53;5043847;28;21143;-85
2022/07/10 11:37:53;;;;;;;4.50;1.00;;;;;;;17.42;91.07;101376.34;5048512;28;20424;-86
2022/07/10 11:40:26;;;;;;;4.60;1.05;;;;;;;17.31;78.73;101375.75;5065877;28;20811;-84
2022/07/10 11:43:04;;;;;;;3.67;0.88;;;;;;;17.84;88.39;101379.78;5055828;28;20430;-81
2022/07/10 11:45:38;;;;;;;2.25;0.80;;;;;;;17.68;79.87;101376.56;5064671;28;20502;-85
2022/07/10 11:48:08;;;;;;;6.88;0.90;;;;;;;17.76;80.02;101357.69;5057747;28;20954;-86
2022/07/10 11:50:38;;;;;;;5.60;1.20;;;;;;;17.77;82.69;101382.16;5062683;28;20428;-85
2022/07/10 11:53:08;;;;;;;4.45;0.90;;;;;;;17.89;85.36;101384.34;5061893;28;20427;-86
2022/07/10 11:55:41;;;;;;;4.25;1.00;;;;;;;18.18;82.95;101386.69;5043961;28;20431;-85
2022/07/10 11:58:15;;;;;;;3.37;0.90;;;;;;;18.17;86.46;101389.75;5047832;28;20911;-84